TBA9901 ZUUU-ZGSZ
Flight info
| Callsign | TBA9901 |
|---|---|
| Flight time | 1h 54m |
| Altitude | 35100 |
| Route | ZUUU SID IDBOR B330 SJG G586 QP B330 UKMAX GYA01 GYA A599 POU W7 SAREX STAR ZGSZ |
| Aircraft | A332/H-SDE2E3FGILRWXY/LB2 |
Departure
| Time | 2026-04-30 08:26 |
|---|---|
| Airport | Chengdu Shuangliu International Airport (ZUUU) |
Arrival
| Time | 2026-04-30 10:21 |
|---|---|
| Airport | Shenzhen Bao'an International Airport (ZGSZ) |
| Time | Latitude | Longitude | Altitude | Speed | Heading |
|---|---|---|---|---|---|
| 2026-04-30 08:12 | 30.57012 | 103.94853 | 1651 ft | 0 kts | 115° |
| 2026-04-30 08:16 | 30.57012 | 103.94852 | 1651 ft | 1 kts | 115° |
| 2026-04-30 08:17 | 30.57019 | 103.94836 | 1651 ft | 3 kts | 118° |
| 2026-04-30 08:17 | 30.57029 | 103.94815 | 1651 ft | 3 kts | 115° |
| 2026-04-30 08:17 | 30.57036 | 103.94794 | 1651 ft | 3 kts | 102° |
| 2026-04-30 08:17 | 30.57040 | 103.94771 | 1651 ft | 3 kts | 103° |
| 2026-04-30 08:18 | 30.57045 | 103.94748 | 1651 ft | 3 kts | 103° |
| 2026-04-30 08:18 | 30.57049 | 103.94726 | 1651 ft | 3 kts | 99° |
| 2026-04-30 08:18 | 30.57051 | 103.94711 | 1651 ft | 1 kts | 96° |
| 2026-04-30 08:18 | 30.57052 | 103.94707 | 1651 ft | 0 kts | 96° |
| 2026-04-30 08:20 | 30.57057 | 103.94721 | 1651 ft | 2 kts | 59° |
| 2026-04-30 08:21 | 30.57076 | 103.94735 | 1651 ft | 4 kts | 26° |
| 2026-04-30 08:21 | 30.57105 | 103.94749 | 1651 ft | 7 kts | 23° |
| 2026-04-30 08:21 | 30.57178 | 103.94784 | 1651 ft | 13 kts | 19° |
| 2026-04-30 08:21 | 30.57265 | 103.94805 | 1651 ft | 7 kts | 342° |
| 2026-04-30 08:22 | 30.57289 | 103.94776 | 1651 ft | 5 kts | 304° |
| 2026-04-30 08:22 | 30.57306 | 103.94680 | 1651 ft | 13 kts | 250° |
| 2026-04-30 08:22 | 30.57263 | 103.94634 | 1650 ft | 11 kts | 204° |
| 2026-04-30 08:22 | 30.57184 | 103.94606 | 1650 ft | 12 kts | 200° |
| 2026-04-30 08:23 | 30.57109 | 103.94572 | 1651 ft | 12 kts | 201° |
| 2026-04-30 08:23 | 30.57031 | 103.94537 | 1651 ft | 12 kts | 201° |
| 2026-04-30 08:23 | 30.56949 | 103.94499 | 1651 ft | 13 kts | 201° |
| 2026-04-30 08:23 | 30.56862 | 103.94460 | 1651 ft | 14 kts | 201° |
| 2026-04-30 08:24 | 30.56771 | 103.94418 | 1651 ft | 14 kts | 201° |
| 2026-04-30 08:24 | 30.56650 | 103.94363 | 1651 ft | 26 kts | 201° |
| 2026-04-30 08:24 | 30.56487 | 103.94270 | 1651 ft | 26 kts | 207° |
| 2026-04-30 08:24 | 30.56330 | 103.94196 | 1651 ft | 21 kts | 222° |
| 2026-04-30 08:25 | 30.56325 | 103.94095 | 1651 ft | 10 kts | 293° |
| 2026-04-30 08:25 | 30.56396 | 103.94037 | 1651 ft | 12 kts | 3° |
| 2026-04-30 08:25 | 30.56544 | 103.94094 | 1653 ft | 45 kts | 21° |
| 2026-04-30 08:25 | 30.57029 | 103.94323 | 1649 ft | 104 kts | 22° |
| 2026-04-30 08:26 | 30.57850 | 103.94728 | 1651 ft | 150 kts | 22° |
| 2026-04-30 08:26 | 30.58934 | 103.95176 | 1852 ft | 181 kts | 20° |
| 2026-04-30 08:26 | 30.60199 | 103.95758 | 2214 ft | 209 kts | 21° |
| 2026-04-30 08:26 | 30.61620 | 103.96428 | 2722 ft | 229 kts | 21° |
| 2026-04-30 08:27 | 30.63176 | 103.97160 | 3066 ft | 253 kts | 21° |
| 2026-04-30 08:27 | 30.64850 | 103.97947 | 3686 ft | 264 kts | 21° |
| 2026-04-30 08:27 | 30.66545 | 103.98741 | 4519 ft | 269 kts | 22° |
| 2026-04-30 08:27 | 30.68224 | 103.99743 | 5321 ft | 273 kts | 38° |
| 2026-04-30 08:28 | 30.69504 | 104.01368 | 6242 ft | 275 kts | 58° |
| 2026-04-30 08:28 | 30.70484 | 104.03283 | 7101 ft | 278 kts | 62° |
| 2026-04-30 08:28 | 30.71420 | 104.05273 | 7979 ft | 282 kts | 63° |
| 2026-04-30 08:28 | 30.72368 | 104.07295 | 8876 ft | 287 kts | 62° |
| 2026-04-30 08:29 | 30.73339 | 104.09351 | 9754 ft | 292 kts | 62° |
| 2026-04-30 08:29 | 30.74330 | 104.11436 | 10531 ft | 297 kts | 62° |
| 2026-04-30 08:29 | 30.75320 | 104.13573 | 11263 ft | 302 kts | 66° |
| 2026-04-30 08:29 | 30.75877 | 104.15927 | 11965 ft | 305 kts | 89° |
| 2026-04-30 08:30 | 30.75515 | 104.18339 | 12673 ft | 305 kts | 117° |
| 2026-04-30 08:30 | 30.74257 | 104.20291 | 13420 ft | 303 kts | 144° |
| 2026-04-30 08:30 | 30.72428 | 104.21371 | 14092 ft | 301 kts | 169° |
| 2026-04-30 08:30 | 30.70346 | 104.21412 | 14733 ft | 301 kts | 192° |
| 2026-04-30 08:31 | 30.68320 | 104.20752 | 15410 ft | 304 kts | 199° |
| 2026-04-30 08:31 | 30.66315 | 104.19955 | 16105 ft | 307 kts | 200° |
| 2026-04-30 08:31 | 30.64287 | 104.19142 | 16792 ft | 310 kts | 200° |
| 2026-04-30 08:31 | 30.62237 | 104.18332 | 17470 ft | 313 kts | 200° |
| 2026-04-30 08:32 | 30.60163 | 104.17524 | 18140 ft | 316 kts | 200° |
| 2026-04-30 08:32 | 30.58063 | 104.16714 | 18737 ft | 319 kts | 200° |
| 2026-04-30 08:32 | 30.55945 | 104.15900 | 19309 ft | 323 kts | 200° |
| 2026-04-30 08:32 | 30.53800 | 104.15078 | 19880 ft | 326 kts | 200° |
| 2026-04-30 08:33 | 30.51633 | 104.14250 | 20448 ft | 329 kts | 200° |
| 2026-04-30 08:33 | 30.49441 | 104.13413 | 21015 ft | 333 kts | 200° |
| 2026-04-30 08:33 | 30.47980 | 104.12853 | 21396 ft | 335 kts | 201° |
| 2026-04-30 08:33 | 30.45782 | 104.11906 | 21865 ft | 342 kts | 203° |
| 2026-04-30 08:34 | 30.43534 | 104.10865 | 22114 ft | 355 kts | 204° |
| 2026-04-30 08:34 | 30.40388 | 104.09389 | 22391 ft | 373 kts | 204° |
| 2026-04-30 08:34 | 30.38776 | 104.08633 | 22525 ft | 382 kts | 204° |
| 2026-04-30 08:34 | 30.36266 | 104.07469 | 22737 ft | 394 kts | 202° |
| 2026-04-30 08:35 | 30.33622 | 104.06536 | 23119 ft | 402 kts | 194° |
| 2026-04-30 08:35 | 30.30826 | 104.06152 | 23597 ft | 409 kts | 183° |
| 2026-04-30 08:35 | 30.27968 | 104.06423 | 23984 ft | 416 kts | 172° |
| 2026-04-30 08:35 | 30.24302 | 104.07838 | 24488 ft | 426 kts | 156° |
| 2026-04-30 08:36 | 30.22565 | 104.09018 | 24750 ft | 432 kts | 148° |
| 2026-04-30 08:36 | 30.20260 | 104.11292 | 25145 ft | 440 kts | 137° |
| 2026-04-30 08:36 | 30.18185 | 104.13928 | 25474 ft | 445 kts | 134° |
| 2026-04-30 08:36 | 30.16147 | 104.16645 | 25852 ft | 449 kts | 134° |
| 2026-04-30 08:37 | 30.14120 | 104.19350 | 26205 ft | 452 kts | 134° |
| 2026-04-30 08:37 | 30.12045 | 104.22101 | 26539 ft | 456 kts | 134° |
| 2026-04-30 08:37 | 30.09944 | 104.24873 | 26865 ft | 460 kts | 134° |
| 2026-04-30 08:37 | 30.07820 | 104.27668 | 27218 ft | 464 kts | 134° |
| 2026-04-30 08:38 | 30.05683 | 104.30473 | 27569 ft | 467 kts | 134° |
| 2026-04-30 08:38 | 30.03527 | 104.33301 | 27918 ft | 471 kts | 134° |
| 2026-04-30 08:38 | 30.01354 | 104.36146 | 28264 ft | 474 kts | 134° |
| 2026-04-30 08:38 | 29.99162 | 104.39015 | 28611 ft | 478 kts | 134° |
| 2026-04-30 08:39 | 29.96958 | 104.41895 | 28959 ft | 481 kts | 134° |
| 2026-04-30 08:39 | 29.94738 | 104.44795 | 29280 ft | 484 kts | 134° |
| 2026-04-30 08:39 | 29.92498 | 104.47718 | 29616 ft | 488 kts | 134° |
| 2026-04-30 08:39 | 29.90238 | 104.50665 | 29935 ft | 491 kts | 134° |
| 2026-04-30 08:40 | 29.87970 | 104.53621 | 30222 ft | 494 kts | 134° |
| 2026-04-30 08:40 | 29.85683 | 104.56599 | 30479 ft | 497 kts | 134° |
| 2026-04-30 08:40 | 29.83383 | 104.59592 | 30789 ft | 499 kts | 134° |
| 2026-04-30 08:40 | 29.81074 | 104.62595 | 31062 ft | 502 kts | 134° |
| 2026-04-30 08:41 | 29.78784 | 104.65569 | 31343 ft | 505 kts | 134° |
| 2026-04-30 08:41 | 29.76450 | 104.68600 | 31628 ft | 507 kts | 134° |
| 2026-04-30 08:41 | 29.74098 | 104.71650 | 31907 ft | 510 kts | 134° |
| 2026-04-30 08:41 | 29.71741 | 104.74706 | 32248 ft | 511 kts | 135° |
| 2026-04-30 08:42 | 29.69379 | 104.77765 | 32648 ft | 511 kts | 135° |
| 2026-04-30 08:42 | 29.67019 | 104.80821 | 33029 ft | 511 kts | 135° |
| 2026-04-30 08:42 | 29.64657 | 104.83877 | 33408 ft | 511 kts | 135° |
| 2026-04-30 08:42 | 29.62294 | 104.86930 | 33803 ft | 511 kts | 135° |
| 2026-04-30 08:43 | 29.59932 | 104.89980 | 34140 ft | 511 kts | 135° |
| 2026-04-30 08:43 | 29.57566 | 104.93034 | 34450 ft | 511 kts | 135° |
| 2026-04-30 08:43 | 29.55199 | 104.96085 | 34725 ft | 513 kts | 135° |
| 2026-04-30 08:43 | 29.52824 | 104.99145 | 34973 ft | 513 kts | 135° |
| 2026-04-30 08:44 | 29.50462 | 105.02188 | 35076 ft | 506 kts | 135° |
| 2026-04-30 08:44 | 29.45883 | 105.08132 | 35078 ft | 492 kts | 134° |
| 2026-04-30 08:45 | 29.41361 | 105.14010 | 35074 ft | 492 kts | 135° |
| 2026-04-30 08:45 | 29.36825 | 105.19895 | 35072 ft | 492 kts | 135° |
| 2026-04-30 08:46 | 29.32317 | 105.25731 | 35072 ft | 492 kts | 135° |
| 2026-04-30 08:46 | 29.27745 | 105.31641 | 35067 ft | 491 kts | 134° |
| 2026-04-30 08:47 | 29.23251 | 105.37443 | 35067 ft | 490 kts | 135° |
| 2026-04-30 08:47 | 29.18723 | 105.43281 | 35069 ft | 490 kts | 134° |
| 2026-04-30 08:48 | 29.14183 | 105.49125 | 35068 ft | 492 kts | 134° |
| 2026-04-30 08:48 | 29.09635 | 105.54970 | 35067 ft | 492 kts | 134° |
| 2026-04-30 08:49 | 29.05089 | 105.60806 | 35065 ft | 492 kts | 134° |
| 2026-04-30 08:49 | 29.00534 | 105.66643 | 35063 ft | 492 kts | 134° |
| 2026-04-30 08:50 | 28.95965 | 105.72490 | 35059 ft | 494 kts | 134° |
| 2026-04-30 08:50 | 28.91386 | 105.78342 | 35059 ft | 494 kts | 134° |
| 2026-04-30 08:51 | 28.90643 | 105.79292 | 35070 ft | 494 kts | 134° |
| 2026-04-30 08:52 | 28.77928 | 105.95495 | 35077 ft | 492 kts | 135° |
| 2026-04-30 08:53 | 28.73358 | 106.01304 | 35087 ft | 492 kts | 135° |
| 2026-04-30 08:53 | 28.68768 | 106.07126 | 35096 ft | 495 kts | 135° |
| 2026-04-30 08:54 | 28.64191 | 106.12922 | 35092 ft | 496 kts | 135° |
| 2026-04-30 08:54 | 28.59578 | 106.18759 | 35107 ft | 495 kts | 135° |
| 2026-04-30 08:55 | 28.54972 | 106.24589 | 35122 ft | 495 kts | 135° |
| 2026-04-30 08:55 | 28.50372 | 106.30394 | 35122 ft | 492 kts | 135° |
| 2026-04-30 08:56 | 28.45789 | 106.36168 | 35144 ft | 491 kts | 135° |
| 2026-04-30 08:56 | 28.41194 | 106.41946 | 35146 ft | 493 kts | 135° |
| 2026-04-30 08:57 | 28.36586 | 106.47735 | 35146 ft | 494 kts | 135° |
| 2026-04-30 08:57 | 28.31967 | 106.53531 | 35165 ft | 495 kts | 135° |
| 2026-04-30 08:58 | 28.27352 | 106.59318 | 35164 ft | 494 kts | 135° |
| 2026-04-30 08:58 | 28.22767 | 106.65055 | 35173 ft | 494 kts | 135° |
| 2026-04-30 08:59 | 28.18158 | 106.70815 | 35174 ft | 492 kts | 135° |
| 2026-04-30 08:59 | 28.13556 | 106.76557 | 35177 ft | 492 kts | 135° |
| 2026-04-30 09:00 | 28.08947 | 106.82299 | 35181 ft | 492 kts | 135° |
| 2026-04-30 09:00 | 28.04335 | 106.88038 | 35188 ft | 492 kts | 135° |
| 2026-04-30 09:01 | 27.99726 | 106.93767 | 35190 ft | 492 kts | 135° |
| 2026-04-30 09:01 | 27.95112 | 106.99492 | 35183 ft | 492 kts | 135° |
| 2026-04-30 09:02 | 27.88183 | 107.08074 | 35184 ft | 493 kts | 135° |
| 2026-04-30 09:02 | 27.83558 | 107.13796 | 35179 ft | 492 kts | 135° |
| 2026-04-30 09:03 | 27.78953 | 107.19485 | 35180 ft | 490 kts | 135° |
| 2026-04-30 09:03 | 27.74373 | 107.25134 | 35180 ft | 491 kts | 135° |
| 2026-04-30 09:04 | 27.69764 | 107.30811 | 35185 ft | 490 kts | 135° |
| 2026-04-30 09:04 | 27.65154 | 107.36482 | 35182 ft | 490 kts | 135° |
| 2026-04-30 09:05 | 27.60541 | 107.42149 | 35177 ft | 491 kts | 135° |
| 2026-04-30 09:05 | 27.55914 | 107.47824 | 35178 ft | 492 kts | 135° |
| 2026-04-30 09:06 | 27.51288 | 107.53493 | 35167 ft | 491 kts | 135° |
| 2026-04-30 09:06 | 27.46669 | 107.59146 | 35176 ft | 490 kts | 135° |
| 2026-04-30 09:07 | 27.42050 | 107.64789 | 35174 ft | 490 kts | 135° |
| 2026-04-30 09:07 | 27.37427 | 107.70430 | 35180 ft | 489 kts | 135° |
| 2026-04-30 09:08 | 27.32841 | 107.76020 | 35175 ft | 490 kts | 135° |
| 2026-04-30 09:08 | 27.28217 | 107.81646 | 35174 ft | 490 kts | 135° |
| 2026-04-30 09:09 | 27.23588 | 107.87269 | 35169 ft | 491 kts | 135° |
| 2026-04-30 09:09 | 27.18928 | 107.92926 | 35171 ft | 493 kts | 135° |
| 2026-04-30 09:10 | 27.14197 | 107.98659 | 35169 ft | 508 kts | 135° |
| 2026-04-30 09:10 | 27.09311 | 108.04570 | 35169 ft | 524 kts | 135° |
| 2026-04-30 09:11 | 27.04295 | 108.10633 | 35168 ft | 535 kts | 135° |
| 2026-04-30 09:11 | 26.99223 | 108.16761 | 35167 ft | 536 kts | 135° |
| 2026-04-30 09:12 | 26.94154 | 108.22877 | 35172 ft | 535 kts | 135° |
| 2026-04-30 09:12 | 26.89113 | 108.28945 | 35169 ft | 535 kts | 135° |
| 2026-04-30 09:13 | 26.84039 | 108.35040 | 35162 ft | 535 kts | 135° |
| 2026-04-30 09:13 | 26.78958 | 108.41138 | 35168 ft | 535 kts | 136° |
| 2026-04-30 09:14 | 26.73878 | 108.47212 | 35167 ft | 534 kts | 135° |
| 2026-04-30 09:14 | 26.68811 | 108.53288 | 35168 ft | 534 kts | 135° |
| 2026-04-30 09:15 | 26.63738 | 108.59354 | 35167 ft | 534 kts | 136° |
| 2026-04-30 09:15 | 26.58659 | 108.65419 | 35167 ft | 534 kts | 135° |
| 2026-04-30 09:16 | 26.53604 | 108.71443 | 35166 ft | 534 kts | 135° |
| 2026-04-30 09:16 | 26.48528 | 108.77495 | 35167 ft | 534 kts | 135° |
| 2026-04-30 09:17 | 26.43444 | 108.83540 | 35168 ft | 534 kts | 135° |
| 2026-04-30 09:17 | 26.38354 | 108.89586 | 35163 ft | 534 kts | 135° |
| 2026-04-30 09:18 | 26.33261 | 108.95628 | 35174 ft | 534 kts | 135° |
| 2026-04-30 09:18 | 26.28160 | 109.01662 | 35163 ft | 534 kts | 135° |
| 2026-04-30 09:19 | 26.23061 | 109.07687 | 35172 ft | 534 kts | 136° |
| 2026-04-30 09:19 | 26.17960 | 109.13708 | 35164 ft | 534 kts | 136° |
| 2026-04-30 09:20 | 26.12864 | 109.19716 | 35162 ft | 533 kts | 135° |
| 2026-04-30 09:20 | 26.07770 | 109.25715 | 35160 ft | 533 kts | 135° |
| 2026-04-30 09:21 | 26.02670 | 109.31711 | 35159 ft | 534 kts | 136° |
| 2026-04-30 09:21 | 25.97597 | 109.37667 | 35159 ft | 533 kts | 136° |
| 2026-04-30 09:22 | 25.92489 | 109.43657 | 35149 ft | 533 kts | 136° |
| 2026-04-30 09:22 | 25.87383 | 109.49639 | 35151 ft | 533 kts | 136° |
| 2026-04-30 09:23 | 25.82280 | 109.55610 | 35149 ft | 533 kts | 136° |
| 2026-04-30 09:23 | 25.77161 | 109.61558 | 35149 ft | 532 kts | 137° |
| 2026-04-30 09:24 | 25.71874 | 109.67268 | 35144 ft | 530 kts | 139° |
| 2026-04-30 09:24 | 25.66507 | 109.72872 | 35147 ft | 530 kts | 139° |
| 2026-04-30 09:25 | 25.61145 | 109.78484 | 35147 ft | 530 kts | 139° |
| 2026-04-30 09:25 | 25.55802 | 109.84111 | 35147 ft | 530 kts | 139° |
| 2026-04-30 09:26 | 25.50464 | 109.89742 | 35143 ft | 529 kts | 138° |
| 2026-04-30 09:26 | 25.45123 | 109.95360 | 35141 ft | 530 kts | 139° |
| 2026-04-30 09:27 | 25.39787 | 110.00965 | 35144 ft | 528 kts | 139° |
| 2026-04-30 09:27 | 25.34487 | 110.06530 | 35143 ft | 528 kts | 139° |
| 2026-04-30 09:28 | 25.29151 | 110.12129 | 35115 ft | 528 kts | 139° |
| 2026-04-30 09:28 | 25.23825 | 110.17708 | 35117 ft | 528 kts | 139° |
| 2026-04-30 09:29 | 25.18495 | 110.23297 | 35122 ft | 527 kts | 139° |
| 2026-04-30 09:29 | 25.13198 | 110.28901 | 35127 ft | 528 kts | 139° |
| 2026-04-30 09:30 | 25.07909 | 110.34503 | 35136 ft | 527 kts | 139° |
| 2026-04-30 09:30 | 25.02653 | 110.40064 | 35140 ft | 526 kts | 139° |
| 2026-04-30 09:31 | 24.97359 | 110.45658 | 35142 ft | 526 kts | 139° |
| 2026-04-30 09:31 | 24.92076 | 110.51242 | 35137 ft | 526 kts | 139° |
| 2026-04-30 09:32 | 24.86799 | 110.56816 | 35138 ft | 526 kts | 139° |
| 2026-04-30 09:32 | 24.81519 | 110.62384 | 35139 ft | 526 kts | 139° |
| 2026-04-30 09:33 | 24.76235 | 110.67948 | 35128 ft | 526 kts | 139° |
| 2026-04-30 09:33 | 24.70945 | 110.73514 | 35134 ft | 525 kts | 139° |
| 2026-04-30 09:34 | 24.66555 | 110.78135 | 35137 ft | 526 kts | 139° |
| 2026-04-30 09:34 | 24.61322 | 110.83744 | 35138 ft | 525 kts | 138° |
| 2026-04-30 09:35 | 24.56107 | 110.89378 | 35137 ft | 525 kts | 138° |
| 2026-04-30 09:35 | 24.50896 | 110.94996 | 35138 ft | 525 kts | 138° |
| 2026-04-30 09:36 | 24.45683 | 111.00602 | 35137 ft | 525 kts | 138° |
| 2026-04-30 09:36 | 24.40459 | 111.06205 | 35134 ft | 524 kts | 138° |
| 2026-04-30 09:37 | 24.35246 | 111.11789 | 35137 ft | 523 kts | 138° |
| 2026-04-30 09:37 | 24.30042 | 111.17359 | 35135 ft | 523 kts | 138° |
| 2026-04-30 09:38 | 24.24870 | 111.22887 | 35139 ft | 522 kts | 138° |
| 2026-04-30 09:38 | 24.19262 | 111.27832 | 35135 ft | 515 kts | 153° |
| 2026-04-30 09:39 | 24.12994 | 111.31613 | 35128 ft | 514 kts | 156° |
| 2026-04-30 09:39 | 24.06619 | 111.35155 | 35122 ft | 513 kts | 156° |
| 2026-04-30 09:40 | 24.00248 | 111.38659 | 35127 ft | 512 kts | 156° |
| 2026-04-30 09:40 | 23.93890 | 111.42182 | 35123 ft | 512 kts | 156° |
| 2026-04-30 09:41 | 23.87541 | 111.45716 | 35116 ft | 512 kts | 156° |
| 2026-04-30 09:41 | 23.81508 | 111.49909 | 35110 ft | 515 kts | 150° |
| 2026-04-30 09:42 | 23.75495 | 111.54136 | 34835 ft | 513 kts | 150° |
| 2026-04-30 09:42 | 23.72494 | 111.56256 | 34601 ft | 515 kts | 150° |
| 2026-04-30 09:42 | 23.69482 | 111.58393 | 34368 ft | 516 kts | 150° |
| 2026-04-30 09:43 | 23.66510 | 111.60511 | 34152 ft | 505 kts | 150° |
| 2026-04-30 09:43 | 23.63602 | 111.62587 | 33921 ft | 495 kts | 150° |
| 2026-04-30 09:43 | 23.60746 | 111.64626 | 33658 ft | 485 kts | 150° |
| 2026-04-30 09:43 | 23.57982 | 111.66598 | 33412 ft | 478 kts | 150° |
| 2026-04-30 09:44 | 23.55209 | 111.68575 | 33159 ft | 476 kts | 150° |
| 2026-04-30 09:44 | 23.52427 | 111.70556 | 32896 ft | 478 kts | 150° |
| 2026-04-30 09:44 | 23.49637 | 111.72543 | 32641 ft | 480 kts | 150° |
| 2026-04-30 09:44 | 23.46838 | 111.74535 | 32413 ft | 480 kts | 150° |
| 2026-04-30 09:45 | 23.44040 | 111.76527 | 32159 ft | 481 kts | 150° |
| 2026-04-30 09:45 | 23.41234 | 111.78524 | 31900 ft | 481 kts | 150° |
| 2026-04-30 09:45 | 23.38430 | 111.80520 | 31666 ft | 481 kts | 150° |
| 2026-04-30 09:45 | 23.35627 | 111.82513 | 31421 ft | 481 kts | 150° |
| 2026-04-30 09:46 | 23.32825 | 111.84504 | 31181 ft | 481 kts | 150° |
| 2026-04-30 09:46 | 23.30029 | 111.86489 | 30950 ft | 479 kts | 150° |
| 2026-04-30 09:46 | 23.27278 | 111.88442 | 30721 ft | 478 kts | 150° |
| 2026-04-30 09:46 | 23.24498 | 111.90415 | 30491 ft | 476 kts | 150° |
| 2026-04-30 09:47 | 23.21725 | 111.92382 | 30263 ft | 475 kts | 150° |
| 2026-04-30 09:47 | 23.18961 | 111.94341 | 30027 ft | 474 kts | 149° |
| 2026-04-30 09:47 | 23.16201 | 111.96297 | 29756 ft | 472 kts | 150° |
| 2026-04-30 09:47 | 23.13456 | 111.98241 | 29485 ft | 470 kts | 150° |
| 2026-04-30 09:48 | 23.10725 | 112.00174 | 29229 ft | 468 kts | 150° |
| 2026-04-30 09:48 | 23.08008 | 112.02096 | 28963 ft | 465 kts | 150° |
| 2026-04-30 09:48 | 23.05309 | 112.04004 | 28696 ft | 462 kts | 150° |
| 2026-04-30 09:48 | 23.02618 | 112.05906 | 28439 ft | 460 kts | 150° |
| 2026-04-30 09:49 | 22.99941 | 112.07796 | 28186 ft | 458 kts | 150° |
| 2026-04-30 09:49 | 22.97279 | 112.09675 | 27936 ft | 456 kts | 150° |
| 2026-04-30 09:49 | 22.94629 | 112.11545 | 27679 ft | 454 kts | 150° |
| 2026-04-30 09:49 | 22.91989 | 112.13407 | 27434 ft | 452 kts | 150° |
| 2026-04-30 09:50 | 22.89356 | 112.15264 | 27200 ft | 450 kts | 150° |
| 2026-04-30 09:50 | 22.86737 | 112.17110 | 26951 ft | 449 kts | 150° |
| 2026-04-30 09:50 | 22.84123 | 112.18950 | 26706 ft | 447 kts | 150° |
| 2026-04-30 09:50 | 22.81556 | 112.20758 | 26474 ft | 445 kts | 150° |
| 2026-04-30 09:51 | 22.78965 | 112.22581 | 26233 ft | 443 kts | 150° |
| 2026-04-30 09:51 | 22.76385 | 112.24396 | 26000 ft | 441 kts | 150° |
| 2026-04-30 09:51 | 22.73814 | 112.26204 | 25759 ft | 440 kts | 150° |
| 2026-04-30 09:51 | 22.71252 | 112.28005 | 25529 ft | 438 kts | 150° |
| 2026-04-30 09:52 | 22.68698 | 112.29799 | 25298 ft | 437 kts | 150° |
| 2026-04-30 09:52 | 22.66154 | 112.31585 | 25072 ft | 435 kts | 150° |
| 2026-04-30 09:52 | 22.63625 | 112.33360 | 24847 ft | 433 kts | 150° |
| 2026-04-30 09:52 | 22.61094 | 112.35135 | 24617 ft | 432 kts | 150° |
| 2026-04-30 09:53 | 22.58578 | 112.36899 | 24395 ft | 430 kts | 150° |
| 2026-04-30 09:53 | 22.56072 | 112.38655 | 24180 ft | 428 kts | 150° |
| 2026-04-30 09:53 | 22.53575 | 112.40405 | 23965 ft | 427 kts | 150° |
| 2026-04-30 09:53 | 22.51096 | 112.42169 | 23745 ft | 427 kts | 148° |
| 2026-04-30 09:54 | 22.48740 | 112.44136 | 23515 ft | 430 kts | 145° |
| 2026-04-30 09:54 | 22.46394 | 112.46156 | 23251 ft | 430 kts | 144° |
| 2026-04-30 09:54 | 22.44066 | 112.48186 | 22992 ft | 430 kts | 144° |
| 2026-04-30 09:54 | 22.41749 | 112.50219 | 22712 ft | 428 kts | 144° |
| 2026-04-30 09:55 | 22.39473 | 112.52223 | 22452 ft | 427 kts | 144° |
| 2026-04-30 09:55 | 22.37177 | 112.54246 | 22232 ft | 425 kts | 144° |
| 2026-04-30 09:55 | 22.34890 | 112.56263 | 21975 ft | 424 kts | 144° |
| 2026-04-30 09:55 | 22.32609 | 112.58275 | 21723 ft | 422 kts | 144° |
| 2026-04-30 09:56 | 22.30337 | 112.60278 | 21477 ft | 421 kts | 144° |
| 2026-04-30 09:56 | 22.28072 | 112.62275 | 21232 ft | 420 kts | 144° |
| 2026-04-30 09:56 | 22.25815 | 112.64264 | 20993 ft | 418 kts | 144° |
| 2026-04-30 09:56 | 22.23564 | 112.66247 | 20755 ft | 417 kts | 144° |
| 2026-04-30 09:57 | 22.21321 | 112.68223 | 20521 ft | 416 kts | 144° |
| 2026-04-30 09:57 | 22.19083 | 112.70192 | 20286 ft | 414 kts | 146° |
| 2026-04-30 09:57 | 22.16840 | 112.72129 | 20046 ft | 413 kts | 147° |
| 2026-04-30 09:57 | 22.14599 | 112.74059 | 19815 ft | 411 kts | 146° |
| 2026-04-30 09:58 | 22.12373 | 112.75987 | 19581 ft | 410 kts | 146° |
| 2026-04-30 09:58 | 22.10155 | 112.77921 | 19348 ft | 409 kts | 146° |
| 2026-04-30 09:58 | 22.07969 | 112.79833 | 19018 ft | 402 kts | 146° |
| 2026-04-30 09:58 | 22.05799 | 112.81734 | 18529 ft | 401 kts | 146° |
| 2026-04-30 09:59 | 22.01481 | 112.85517 | 17433 ft | 398 kts | 146° |
| 2026-04-30 09:59 | 21.97224 | 112.89250 | 16418 ft | 391 kts | 146° |
| 2026-04-30 10:00 | 21.93239 | 112.93169 | 15486 ft | 391 kts | 129° |
| 2026-04-30 10:00 | 21.92054 | 112.95812 | 15122 ft | 396 kts | 107° |
| 2026-04-30 10:01 | 21.92474 | 113.01609 | 15002 ft | 398 kts | 65° |
| 2026-04-30 10:01 | 21.93968 | 113.04091 | 14697 ft | 394 kts | 46° |
| 2026-04-30 10:01 | 21.96086 | 113.05931 | 13910 ft | 392 kts | 26° |
| 2026-04-30 10:02 | 22.01232 | 113.07603 | 12476 ft | 384 kts | 11° |
| 2026-04-30 10:02 | 22.03800 | 113.08368 | 11854 ft | 382 kts | 14° |
| 2026-04-30 10:02 | 22.06326 | 113.09240 | 11280 ft | 378 kts | 16° |
| 2026-04-30 10:02 | 22.08786 | 113.10190 | 10789 ft | 374 kts | 21° |
| 2026-04-30 10:03 | 22.10995 | 113.11632 | 10472 ft | 367 kts | 36° |
| 2026-04-30 10:03 | 22.13093 | 113.13084 | 10361 ft | 354 kts | 20° |
| 2026-04-30 10:03 | 22.15440 | 113.13617 | 10161 ft | 347 kts | 359° |
| 2026-04-30 10:03 | 22.17839 | 113.13526 | 9947 ft | 344 kts | 354° |
| 2026-04-30 10:04 | 22.20191 | 113.13399 | 9698 ft | 333 kts | 356° |
| 2026-04-30 10:04 | 22.22469 | 113.13339 | 9466 ft | 322 kts | 357° |
| 2026-04-30 10:04 | 22.24680 | 113.13332 | 9219 ft | 313 kts | 358° |
| 2026-04-30 10:04 | 22.26828 | 113.13357 | 8979 ft | 304 kts | 359° |
| 2026-04-30 10:05 | 22.28911 | 113.13399 | 8870 ft | 294 kts | 359° |
| 2026-04-30 10:05 | 22.30952 | 113.13448 | 8863 ft | 293 kts | 359° |
| 2026-04-30 10:05 | 22.32990 | 113.13505 | 8862 ft | 293 kts | 359° |
| 2026-04-30 10:05 | 22.35030 | 113.13567 | 8865 ft | 293 kts | 359° |
| 2026-04-30 10:06 | 22.37038 | 113.13633 | 8861 ft | 281 kts | 359° |
| 2026-04-30 10:06 | 22.38953 | 113.13696 | 8864 ft | 271 kts | 359° |
| 2026-04-30 10:06 | 22.40821 | 113.13755 | 8880 ft | 267 kts | 359° |
| 2026-04-30 10:06 | 22.42673 | 113.13813 | 8872 ft | 267 kts | 359° |
| 2026-04-30 10:07 | 22.44537 | 113.13877 | 8824 ft | 267 kts | 0° |
| 2026-04-30 10:07 | 22.46341 | 113.14249 | 8698 ft | 267 kts | 20° |
| 2026-04-30 10:07 | 22.47851 | 113.15457 | 8564 ft | 277 kts | 51° |
| 2026-04-30 10:07 | 22.48608 | 113.17336 | 8360 ft | 280 kts | 78° |
| 2026-04-30 10:08 | 22.48901 | 113.19422 | 8198 ft | 281 kts | 84° |
| 2026-04-30 10:08 | 22.49118 | 113.21549 | 8006 ft | 280 kts | 85° |
| 2026-04-30 10:08 | 22.49330 | 113.23612 | 7844 ft | 279 kts | 84° |
| 2026-04-30 10:08 | 22.49555 | 113.25694 | 7662 ft | 278 kts | 84° |
| 2026-04-30 10:09 | 22.49788 | 113.27765 | 7498 ft | 277 kts | 83° |
| 2026-04-30 10:09 | 22.50024 | 113.29828 | 7319 ft | 276 kts | 83° |
| 2026-04-30 10:09 | 22.50262 | 113.31878 | 7157 ft | 274 kts | 83° |
| 2026-04-30 10:09 | 22.50500 | 113.33914 | 6976 ft | 273 kts | 83° |
| 2026-04-30 10:10 | 22.50737 | 113.35949 | 6819 ft | 271 kts | 83° |
| 2026-04-30 10:10 | 22.50973 | 113.37966 | 6630 ft | 270 kts | 83° |
| 2026-04-30 10:10 | 22.51209 | 113.39981 | 6462 ft | 269 kts | 83° |
| 2026-04-30 10:10 | 22.51444 | 113.41991 | 6280 ft | 268 kts | 83° |
| 2026-04-30 10:11 | 22.51670 | 113.43989 | 6115 ft | 266 kts | 85° |
| 2026-04-30 10:11 | 22.51751 | 113.46014 | 5884 ft | 274 kts | 89° |
| 2026-04-30 10:11 | 22.51815 | 113.48083 | 5624 ft | 275 kts | 89° |
| 2026-04-30 10:11 | 22.51874 | 113.50143 | 5379 ft | 273 kts | 88° |
| 2026-04-30 10:12 | 22.51932 | 113.52182 | 5137 ft | 270 kts | 88° |
| 2026-04-30 10:12 | 22.51990 | 113.54205 | 4915 ft | 268 kts | 88° |
| 2026-04-30 10:12 | 22.52046 | 113.56201 | 4770 ft | 262 kts | 88° |
| 2026-04-30 10:12 | 22.52102 | 113.58136 | 4365 ft | 260 kts | 88° |
| 2026-04-30 10:13 | 22.52157 | 113.60081 | 3962 ft | 257 kts | 88° |
| 2026-04-30 10:13 | 22.52210 | 113.62000 | 3682 ft | 253 kts | 87° |
| 2026-04-30 10:13 | 22.52263 | 113.63889 | 3333 ft | 250 kts | 87° |
| 2026-04-30 10:13 | 22.52314 | 113.65718 | 3131 ft | 237 kts | 87° |
| 2026-04-30 10:14 | 22.52364 | 113.67447 | 2989 ft | 224 kts | 87° |
| 2026-04-30 10:14 | 22.52412 | 113.69083 | 2843 ft | 213 kts | 87° |
| 2026-04-30 10:14 | 22.52505 | 113.72206 | 2301 ft | 203 kts | 86° |
| 2026-04-30 10:15 | 22.52550 | 113.73729 | 2107 ft | 203 kts | 87° |
| 2026-04-30 10:15 | 22.52593 | 113.75223 | 2091 ft | 191 kts | 87° |
| 2026-04-30 10:15 | 22.52633 | 113.76625 | 2093 ft | 184 kts | 86° |
| 2026-04-30 10:15 | 22.52673 | 113.77986 | 2095 ft | 182 kts | 86° |
| 2026-04-30 10:16 | 22.52713 | 113.79371 | 2096 ft | 183 kts | 87° |
| 2026-04-30 10:16 | 22.52752 | 113.80745 | 2094 ft | 181 kts | 88° |
| 2026-04-30 10:16 | 22.52787 | 113.82025 | 2090 ft | 163 kts | 87° |
| 2026-04-30 10:17 | 22.52860 | 113.84360 | 1933 ft | 152 kts | 85° |
| 2026-04-30 10:17 | 22.53962 | 113.85992 | 1584 ft | 143 kts | 6° |
| 2026-04-30 10:17 | 22.54926 | 113.85839 | 1505 ft | 141 kts | 348° |
| 2026-04-30 10:18 | 22.55863 | 113.85428 | 1181 ft | 151 kts | 336° |
| 2026-04-30 10:18 | 22.56788 | 113.84931 | 1001 ft | 142 kts | 338° |
| 2026-04-30 10:18 | 22.57659 | 113.84478 | 876 ft | 135 kts | 335° |
| 2026-04-30 10:19 | 22.59326 | 113.83560 | 683 ft | 139 kts | 334° |
| 2026-04-30 10:19 | 22.60207 | 113.83109 | 478 ft | 139 kts | 336° |
| 2026-04-30 10:19 | 22.61075 | 113.82665 | 333 ft | 138 kts | 334° |
| 2026-04-30 10:19 | 22.61919 | 113.82181 | 169 ft | 136 kts | 333° |
| 2026-04-30 10:20 | 22.62750 | 113.81693 | 41 ft | 135 kts | 343° |
| 2026-04-30 10:20 | 22.63752 | 113.81160 | 19 ft | 53 kts | 329° |
| 2026-04-30 10:20 | 22.64020 | 113.80899 | 18 ft | 50 kts | 300° |
| 2026-04-30 10:21 | 22.64022 | 113.80698 | 15 ft | 21 kts | 246° |
| 2026-04-30 10:21 | 22.63954 | 113.80547 | 14 ft | 31 kts | 242° |
| 2026-04-30 10:21 | 22.63839 | 113.80299 | 17 ft | 36 kts | 247° |
| 2026-04-30 10:21 | 22.63763 | 113.80137 | 15 ft | 36 kts | 243° |
| 2026-04-30 10:22 | 22.63605 | 113.79846 | 12 ft | 21 kts | 216° |
| 2026-04-30 10:22 | 22.63572 | 113.79833 | 12 ft | 0 kts | 184° |
| 2026-04-30 10:22 | 22.63407 | 113.79858 | 13 ft | 26 kts | 166° |
| 2026-04-30 10:22 | 22.63277 | 113.79898 | 11 ft | 29 kts | 160° |
| 2026-04-30 10:23 | 22.63137 | 113.79967 | 14 ft | 15 kts | 153° |
| 2026-04-30 10:23 | 22.63066 | 113.80007 | 13 ft | 16 kts | 153° |
| 2026-04-30 10:23 | 22.62952 | 113.80079 | 12 ft | 19 kts | 134° |
| 2026-04-30 10:23 | 22.62940 | 113.80189 | 14 ft | 11 kts | 73° |
| 2026-04-30 10:24 | 22.62969 | 113.80240 | 16 ft | 6 kts | 47° |
| 2026-04-30 10:24 | 22.63026 | 113.80337 | 18 ft | 30 kts | 63° |
| 2026-04-30 10:24 | 22.63094 | 113.80502 | 18 ft | 14 kts | 47° |
| 2026-04-30 10:24 | 22.63111 | 113.80517 | 19 ft | 2 kts | 37° |
| 2026-04-30 10:25 | 22.63114 | 113.80520 | 19 ft | 0 kts | 35° |